Time;durP1;ratioP1;P1;durP2;ratioP2;P2;SDS_P1;SDS_P2;PMS_P1;PMS_P2;Temp;Humidity;BMP_temperature;BMP_pressure;BME280_temperature;BME280_humidity;BME280_pressure;Samples;Min_cycle;Max_cycle;Signal;HPM_P1;HPM_P2
2022/09/16 00:00:30;;;;;;;3.58;1.23;;;;;;;13.04;73.44;101377.25;5011823;28;20049;-42
2022/09/16 00:02:57;;;;;;;2.78;1.05;;;;;;;13.03;73.62;101374.81;5028557;28;20049;-47
2022/09/16 00:05:25;;;;;;;2.25;1.30;;;;;;;13.02;73.67;101381.53;5026877;28;20483;-45
2022/09/16 00:07:52;;;;;;;2.90;1.40;;;;;;;13.02;73.55;101384.34;5025161;28;20049;-42
2022/09/16 00:10:20;;;;;;;2.03;1.05;;;;;;;13.01;73.74;101379.91;5028319;28;20042;-44
2022/09/16 00:12:47;;;;;;;3.72;1.05;;;;;;;12.98;73.96;101388.94;5029364;28;20041;-42
2022/09/16 00:15:15;;;;;;;4.18;1.30;;;;;;;12.98;73.83;101388.94;5040390;28;20056;-43
2022/09/16 00:17:41;;;;;;;4.00;1.20;;;;;;;12.95;73.65;101390.44;5023600;28;20107;-43
2022/09/16 00:20:09;;;;;;;8.88;2.10;;;;;;;12.96;73.71;101388.47;5031824;28;20080;-41
2022/09/16 00:22:36;;;;;;;1.75;1.02;;;;;;;12.97;73.89;101387.34;5032809;28;20495;-45
2022/09/16 00:25:03;;;;;;;7.90;1.98;;;;;;;12.96;73.72;101402.38;5031940;28;20515;-42
2022/09/16 00:27:30;;;;;;;2.67;1.50;;;;;;;12.91;73.87;101397.88;5018846;28;20045;-42
2022/09/16 00:29:56;;;;;;;4.28;1.27;;;;;;;12.91;73.90;101397.06;5031991;28;20499;-46
2022/09/16 00:32:23;;;;;;;3.40;1.20;;;;;;;12.90;73.81;101392.63;5029694;28;20041;-42
2022/09/16 00:34:51;;;;;;;2.05;1.42;;;;;;;12.87;73.92;101401.69;5024918;28;20049;-44
2022/09/16 00:37:18;;;;;;;2.13;1.33;;;;;;;12.84;73.93;101401.19;5030019;28;20037;-43
2022/09/16 00:39:48;;;;;;;1.75;1.15;;;;;;;12.76;73.71;101402.09;5031636;28;20100;-42
2022/09/16 00:42:16;;;;;;;2.95;1.27;;;;;;;12.73;73.94;101400.00;5002988;28;20504;-41
2022/09/16 00:45:23;;;;;;;5.43;1.10;;;;;;;12.71;73.84;101407.88;5030831;28;20046;-41
2022/09/16 00:47:58;;;;;;;3.22;0.85;;;;;;;12.73;73.88;101405.56;5026963;28;20459;-47
2022/09/16 00:50:37;;;;;;;1.98;1.17;;;;;;;12.69;73.68;101404.66;5031546;28;20041;-42
2022/09/16 00:53:07;;;;;;;1.98;0.70;;;;;;;12.66;73.83;101408.09;5030965;28;20064;-42
2022/09/16 00:55:36;;;;;;;5.00;0.77;;;;;;;12.62;74.00;101407.19;5022577;28;20096;-42
2022/09/16 00:58:34;;;;;;;3.03;1.38;;;;;;;12.54;73.89;101413.63;5028080;28;20064;-42
2022/09/16 01:01:04;;;;;;;2.10;0.88;;;;;;;12.47;73.98;101407.81;5020687;28;20060;-44
2022/09/16 01:03:42;;;;;;;2.53;0.98;;;;;;;12.38;74.03;101409.88;5030162;28;20503;-42
2022/09/16 01:06:12;;;;;;;2.05;0.80;;;;;;;12.31;74.11;101415.16;5034112;28;20049;-47
2022/09/16 01:08:41;;;;;;;6.82;2.22;;;;;;;12.28;74.29;101420.59;5031346;28;20403;-43
2022/09/16 01:11:08;;;;;;;2.28;0.82;;;;;;;12.21;74.43;101421.13;5031049;28;20051;-42
2022/09/16 01:13:36;;;;;;;2.95;1.05;;;;;;;12.20;74.59;101425.06;5030998;28;20063;-42
2022/09/16 01:16:11;;;;;;;6.43;1.00;;;;;;;12.14;74.64;101421.69;5010244;28;20130;-43
2022/09/16 01:19:06;;;;;;;4.72;0.90;;;;;;;12.09;74.73;101410.78;5030682;28;20045;-46
2022/09/16 01:21:33;;;;;;;3.47;1.00;;;;;;;12.07;74.56;101417.81;5016153;28;20049;-46
2022/09/16 01:24:06;;;;;;;2.83;0.75;;;;;;;12.04;74.68;101407.41;5029836;28;20045;-45
2022/09/16 01:26:49;;;;;;;3.75;1.00;;;;;;;12.02;75.02;101418.03;5031107;28;20068;-44
2022/09/16 01:29:54;;;;;;;1.27;0.70;;;;;;;11.95;75.08;101415.78;5027018;28;20042;-44
2022/09/16 01:32:48;;;;;;;8.13;1.90;;;;;;;11.91;74.80;101416.81;5000478;28;20065;-43
2022/09/16 01:35:56;;;;;;;6.38;1.23;;;;;;;11.86;74.90;101415.03;5016327;28;20057;-44
2022/09/16 01:38:54;;;;;;;1.92;1.05;;;;;;;11.82;75.08;101413.28;5020634;28;20446;-42
2022/09/16 01:41:30;;;;;;;4.03;1.83;;;;;;;11.81;75.01;101418.00;5030309;28;20037;-42
2022/09/16 01:44:05;;;;;;;1.60;0.80;;;;;;;11.79;75.15;101413.94;5030727;28;20495;-43
2022/09/16 01:46:31;;;;;;;2.28;0.70;;;;;;;11.78;75.33;101428.97;5023563;28;20487;-41
2022/09/16 01:49:14;;;;;;;4.05;1.00;;;;;;;11.75;75.36;101413.81;5030459;28;20056;-42
2022/09/16 01:52:00;;;;;;;2.28;0.90;;;;;;;11.70;75.46;101424.31;5012533;28;20041;-45
2022/09/16 01:54:40;;;;;;;4.15;0.88;;;;;;;11.66;75.29;101437.97;5029358;28;20056;-43
2022/09/16 01:57:13;;;;;;;2.03;0.95;;;;;;;11.62;75.74;101429.50;5033034;28;20049;-46
2022/09/16 01:59:45;;;;;;;2.75;1.38;;;;;;;11.57;75.66;101429.72;5030131;28;20491;-47
2022/09/16 02:02:20;;;;;;;9.60;2.55;;;;;;;11.55;75.92;101431.19;5030129;28;20053;-44
2022/09/16 02:04:53;;;;;;;3.78;0.88;;;;;;;11.55;75.78;101434.78;5027873;28;20121;-42
2022/09/16 02:07:26;;;;;;;4.78;0.90;;;;;;;11.50;75.86;101434.97;5011498;28;20491;-41
2022/09/16 02:09:56;;;;;;;1.55;0.73;;;;;;;11.48;75.90;101436.47;5029952;28;20053;-43
2022/09/16 02:12:29;;;;;;;2.88;1.00;;;;;;;11.47;75.90;101432.06;5010343;28;20049;-42
2022/09/16 02:15:02;;;;;;;2.20;0.70;;;;;;;11.43;76.24;101429.16;5027567;28;20059;-44
2022/09/16 02:17:32;;;;;;;2.88;0.88;;;;;;;11.39;76.10;101430.97;5018329;28;20048;-42
2022/09/16 02:20:12;;;;;;;2.65;0.95;;;;;;;11.38;76.25;101434.06;5027739;28;20056;-42
2022/09/16 02:23:09;;;;;;;10.45;1.55;;;;;;;11.34;76.38;101436.69;5028245;28;20040;-43
2022/09/16 02:25:39;;;;;;;5.05;0.93;;;;;;;11.30;76.24;101429.38;5016435;28;20368;-46
2022/09/16 02:28:12;;;;;;;1.92;0.80;;;;;;;11.26;76.51;101443.09;5029508;28;20045;-41
2022/09/16 02:30:48;;;;;;;2.75;0.98;;;;;;;11.22;76.65;101427.47;5036528;28;20467;-42
2022/09/16 02:33:16;;;;;;;5.15;1.42;;;;;;;11.19;76.66;101428.94;5029403;28;20041;-42
2022/09/16 02:35:47;;;;;;;3.80;1.00;;;;;;;11.18;76.64;101432.03;5029051;28;20045;-41
2022/09/16 02:38:20;;;;;;;7.43;1.25;;;;;;;11.13;76.92;101424.72;5029443;28;20569;-42
2022/09/16 02:40:54;;;;;;;9.82;1.70;;;;;;;11.11;76.76;101429.78;5009865;28;20045;-43
2022/09/16 02:43:21;;;;;;;5.28;1.50;;;;;;;11.10;76.95;101432.88;5029405;28;20198;-45
2022/09/16 02:46:05;;;;;;;7.47;1.35;;;;;;;11.06;77.14;101434.69;5007146;28;20823;-44
2022/09/16 02:48:56;;;;;;;3.63;1.10;;;;;;;11.00;76.88;101431.28;5003740;28;20176;-45
2022/09/16 02:51:50;;;;;;;2.72;0.93;;;;;;;10.98;77.12;101439.13;4991403;28;20041;-43
2022/09/16 02:54:32;;;;;;;4.75;1.02;;;;;;;10.96;77.12;101442.22;5004439;28;20056;-42
2022/09/16 02:56:59;;;;;;;3.85;0.80;;;;;;;10.93;77.00;101444.84;5003758;28;20053;-45
2022/09/16 02:59:25;;;;;;;2.97;0.77;;;;;;;10.88;77.14;101445.03;5005407;28;20152;-47
2022/09/16 03:01:52;;;;;;;3.63;1.00;;;;;;;10.89;77.31;101436.38;5000518;22;20108;-46
2022/09/16 03:04:19;;;;;;;1.67;0.73;;;;;;;10.89;77.36;101432.78;4978970;28;20038;-45
2022/09/16 03:06:46;;;;;;;1.92;0.73;;;;;;;10.87;77.43;101449.75;4962690;28;20656;-43
2022/09/16 03:09:16;;;;;;;1.95;0.88;;;;;;;10.87;77.50;101432.31;4959691;28;20412;-46
2022/09/16 03:12:08;;;;;;;3.97;1.38;;;;;;;10.82;77.72;101433.31;4963532;28;20051;-44
2022/09/16 03:14:51;;;;;;;2.33;1.20;;;;;;;10.79;77.65;101431.19;4960621;28;20114;-42
2022/09/16 03:17:34;;;;;;;4.18;1.00;;;;;;;10.76;77.64;101429.09;4959328;28;20104;-44
2022/09/16 03:20:19;;;;;;;;;;;;;;;10.74;77.70;101425.03;4959523;28;20106;-48
2022/09/16 03:23:27;;;;;;;8.80;1.17;;;;;;;10.69;77.37;101419.66;4960006;28;20350;-43
2022/09/16 03:25:59;;;;;;;3.85;0.70;;;;;;;10.68;77.46;101434.63;4906139;29;20438;-43
2022/09/16 03:28:38;;;;;;;3.13;1.50;;;;;;;10.64;77.55;101436.44;4906541;29;20087;-44
2022/09/16 03:31:26;;;;;;;1.13;0.55;;;;;;;10.61;77.74;101434.34;4938347;28;20050;-43
2022/09/16 03:34:12;;;;;;;1.23;0.88;;;;;;;10.59;77.79;101436.63;4964484;28;21705;-46
2022/09/16 03:36:44;;;;;;;4.07;0.95;;;;;;;10.61;77.65;101442.66;4959012;28;20054;-47
2022/09/16 03:39:13;;;;;;;2.30;0.80;;;;;;;10.62;77.45;101438.72;4959717;28;20808;-44
2022/09/16 03:41:40;;;;;;;5.60;1.10;;;;;;;10.61;77.56;101439.88;4960032;28;20050;-44
2022/09/16 03:44:07;;;;;;;5.20;1.08;;;;;;;10.58;77.79;101435.81;4959853;28;20046;-48
2022/09/16 03:46:33;;;;;;;3.47;1.13;;;;;;;10.55;78.26;101439.22;4960230;28;20050;-45
2022/09/16 03:49:00;;;;;;;5.43;1.67;;;;;;;10.55;78.18;101442.00;4966882;28;20168;-43
2022/09/16 03:51:27;;;;;;;4.15;1.98;;;;;;;10.54;78.04;101445.09;4963334;28;21509;-45
2022/09/16 03:53:53;;;;;;;2.83;0.77;;;;;;;10.50;78.11;101444.13;4963387;28;20043;-46
2022/09/16 03:56:23;;;;;;;3.08;0.93;;;;;;;10.46;78.35;101446.72;4964501;28;20524;-45
2022/09/16 03:58:50;;;;;;;2.45;0.90;;;;;;;10.48;78.24;101440.88;4968001;28;20140;-49
2022/09/16 04:01:17;;;;;;;2.80;1.73;;;;;;;10.45;78.54;101439.56;4962553;28;20054;-47
2022/09/16 04:03:43;;;;;;;3.30;0.73;;;;;;;10.42;78.63;101436.63;4963723;28;20053;-45
2022/09/16 04:06:10;;;;;;;1.67;0.73;;;;;;;10.38;78.58;101442.81;4962988;28;20076;-45
2022/09/16 04:08:38;;;;;;;5.70;1.23;;;;;;;10.37;78.43;101448.69;4962998;28;20050;-46
2022/09/16 04:11:05;;;;;;;8.00;1.80;;;;;;;10.33;78.54;101448.53;4964547;28;20150;-46
2022/09/16 04:13:34;;;;;;;1.48;0.80;;;;;;;10.33;78.69;101439.41;4963998;28;20046;-44
2022/09/16 04:16:02;;;;;;;2.88;0.90;;;;;;;10.31;78.72;101445.28;4963359;28;22249;-49
2022/09/16 04:18:31;;;;;;;4.75;1.10;;;;;;;10.29;78.51;101442.03;4963759;28;20093;-45
2022/09/16 04:20:59;;;;;;;2.75;0.80;;;;;;;10.28;78.66;101445.09;4962700;28;20045;-45
2022/09/16 04:23:26;;;;;;;2.72;0.70;;;;;;;10.23;78.63;101457.16;4963530;28;20055;-48
2022/09/16 04:25:58;;;;;;;3.85;0.93;;;;;;;10.25;78.72;101454.06;4962499;28;20047;-47
2022/09/16 04:28:26;;;;;;;2.28;0.80;;;;;;;10.21;78.76;101458.63;4964706;28;20097;-48
2022/09/16 04:30:53;;;;;;;3.92;1.00;;;;;;;10.18;78.71;101453.75;4963445;28;20055;-43
2022/09/16 04:33:20;;;;;;;1.88;0.70;;;;;;;10.16;78.85;101442.19;4963050;28;20042;-46
2022/09/16 04:35:46;;;;;;;8.25;0.63;;;;;;;10.12;78.94;101455.84;4963743;28;20050;-48
2022/09/16 04:38:13;;;;;;;2.50;0.80;;;;;;;10.10;78.94;101449.81;4963134;28;20052;-43
2022/09/16 04:40:40;;;;;;;9.25;2.08;;;;;;;10.08;78.76;101445.75;4964047;28;20113;-46
2022/09/16 04:43:06;;;;;;;3.65;1.08;;;;;;;10.06;79.00;101448.81;4963200;28;20054;-46
2022/09/16 04:45:33;;;;;;;2.45;0.80;;;;;;;10.05;78.82;101455.50;4966867;28;20112;-44
2022/09/16 04:48:00;;;;;;;2.67;0.93;;;;;;;10.04;78.95;101464.94;4961888;28;20575;-45
2022/09/16 04:50:26;;;;;;;3.63;0.73;;;;;;;10.03;78.90;101466.09;4962939;28;20050;-44
2022/09/16 04:52:53;;;;;;;3.95;1.02;;;;;;;9.99;79.02;101462.31;4960175;28;20500;-48
2022/09/16 04:55:22;;;;;;;2.88;0.80;;;;;;;9.96;79.18;101460.19;4962375;28;20070;-49
2022/09/16 04:57:49;;;;;;;1.95;0.70;;;;;;;9.93;79.29;101457.28;4961064;28;20373;-43
2022/09/16 05:00:16;;;;;;;3.85;0.63;;;;;;;9.93;79.30;101466.38;4963221;28;20054;-43
2022/09/16 05:02:44;;;;;;;2.67;0.60;;;;;;;9.93;79.36;101468.34;4962472;28;20062;-44
2022/09/16 05:05:11;;;;;;;8.77;2.08;;;;;;;9.89;79.22;101473.69;4962246;28;20054;-50
2022/09/16 05:07:38;;;;;;;5.55;1.05;;;;;;;9.90;79.42;101478.06;4961347;28;20047;-45
2022/09/16 05:10:05;;;;;;;4.50;0.82;;;;;;;9.88;79.47;101483.13;4960014;28;20045;-49
2022/09/16 05:12:32;;;;;;;2.17;0.90;;;;;;;9.87;79.56;101481.53;4976327;28;20473;-44
2022/09/16 05:14:58;;;;;;;4.10;0.80;;;;;;;9.86;79.56;101471.59;4962214;28;20104;-44
2022/09/16 05:17:27;;;;;;;4.85;1.35;;;;;;;9.83;79.63;101474.97;4962312;28;20039;-45
2022/09/16 05:20:14;;;;;;;7.65;0.75;;;;;;;9.84;79.67;101479.38;4961417;28;20132;-43
2022/09/16 05:22:41;;;;;;;3.67;0.82;;;;;;;9.83;79.51;101477.75;4964921;28;20042;-42
2022/09/16 05:25:08;;;;;;;2.85;0.90;;;;;;;9.83;79.59;101480.50;4962003;28;20484;-43
2022/09/16 05:27:35;;;;;;;7.15;2.53;;;;;;;9.82;79.50;101489.97;4960867;28;20046;-42
2022/09/16 05:30:01;;;;;;;4.90;0.98;;;;;;;9.80;79.61;101492.22;4961631;28;20050;-46
2022/09/16 05:32:28;;;;;;;5.03;0.70;;;;;;;9.77;79.58;101490.09;4964505;28;20050;-46
2022/09/16 05:34:55;;;;;;;3.67;0.68;;;;;;;9.78;79.55;101489.78;4961515;28;20053;-47
2022/09/16 05:37:21;;;;;;;4.25;0.88;;;;;;;9.75;79.67;101498.72;4960377;28;20413;-43
2022/09/16 05:39:48;;;;;;;5.40;1.08;;;;;;;9.72;79.67;101495.78;4962374;28;20042;-48
2022/09/16 05:42:15;;;;;;;4.57;0.82;;;;;;;9.69;79.82;101493.66;4961031;28;20051;-45
2022/09/16 05:44:41;;;;;;;1.25;0.70;;;;;;;9.68;80.00;101497.56;4961135;28;20114;-46
2022/09/16 05:47:08;;;;;;;5.25;0.70;;;;;;;9.70;79.92;101495.28;4961259;28;20042;-48
2022/09/16 05:49:35;;;;;;;3.70;1.05;;;;;;;9.70;79.98;101498.06;4961439;28;20054;-44
2022/09/16 05:52:02;;;;;;;2.92;1.23;;;;;;;9.68;79.98;101497.56;4960722;28;20062;-46
2022/09/16 05:54:30;;;;;;;4.43;1.38;;;;;;;9.69;79.90;101493.66;4966663;28;20675;-50
2022/09/16 05:56:57;;;;;;;3.13;0.77;;;;;;;9.68;79.80;101500.34;4963753;28;20137;-51
2022/09/16 05:59:23;;;;;;;2.05;0.80;;;;;;;9.66;79.90;101502.59;4961031;28;20047;-50
2022/09/16 06:01:50;;;;;;;5.57;1.90;;;;;;;9.64;80.08;101504.84;4960977;28;20065;-51
2022/09/16 06:04:17;;;;;;;2.28;1.00;;;;;;;9.62;80.00;101512.66;4964256;28;20034;-46
2022/09/16 06:06:45;;;;;;;2.90;0.88;;;;;;;9.61;80.41;101508.28;4956313;28;20054;-44
2022/09/16 06:09:22;;;;;;;4.60;1.00;;;;;;;9.58;80.21;101511.69;4960674;28;20054;-44
2022/09/16 06:11:51;;;;;;;3.88;0.68;;;;;;;9.58;80.04;101511.69;4963913;28;20107;-43
2022/09/16 06:14:21;;;;;;;2.58;0.70;;;;;;;9.58;80.27;101511.69;4963889;28;21009;-45
2022/09/16 06:16:49;;;;;;;5.97;1.17;;;;;;;9.60;80.36;101514.94;4960321;28;20069;-43
2022/09/16 06:19:17;;;;;;;1.27;1.13;;;;;;;9.61;80.37;101528.44;4963549;28;20042;-47
2022/09/16 06:21:45;;;;;;;2.47;0.68;;;;;;;9.61;80.25;101527.63;4960719;28;20671;-44
2022/09/16 06:24:14;;;;;;;3.28;0.75;;;;;;;9.64;80.26;101538.03;4965413;28;21929;-43
2022/09/16 06:26:42;;;;;;;3.25;1.00;;;;;;;9.64;80.24;101538.03;4960877;28;20058;-46
2022/09/16 06:29:10;;;;;;;1.65;0.98;;;;;;;9.61;80.17;101545.03;4960427;28;20534;-45
2022/09/16 06:31:39;;;;;;;2.92;1.02;;;;;;;9.61;80.27;101536.72;4960675;28;20415;-45
2022/09/16 06:34:07;;;;;;;1.08;0.60;;;;;;;9.62;80.37;101540.31;4962806;28;20130;-46
2022/09/16 06:36:37;;;;;;;1.40;0.60;;;;;;;9.65;80.50;101539.69;4980062;28;20050;-42
2022/09/16 06:39:11;;;;;;;4.55;0.68;;;;;;;9.68;80.39;101548.16;4990102;28;20162;-43
2022/09/16 06:41:37;;;;;;;2.10;0.85;;;;;;;9.70;80.26;101547.81;4990031;28;20047;-42
2022/09/16 06:44:04;;;;;;;5.88;1.08;;;;;;;9.71;80.32;101550.28;4986927;28;20055;-42
2022/09/16 06:46:31;;;;;;;8.77;1.40;;;;;;;9.74;80.26;101548.81;4987674;28;20054;-42
2022/09/16 06:48:57;;;;;;;8.35;0.88;;;;;;;9.74;80.31;101557.91;4989857;28;20397;-44
2022/09/16 06:51:31;;;;;;;3.53;1.17;;;;;;;9.74;80.46;101568.97;4989607;28;20697;-43
2022/09/16 06:54:00;;;;;;;7.82;0.85;;;;;;;9.75;80.47;101567.84;4989821;28;20492;-42
2022/09/16 06:56:27;;;;;;;3.58;0.73;;;;;;;9.78;80.31;101575.50;4990099;28;20049;-48
2022/09/16 06:58:54;;;;;;;4.72;0.65;;;;;;;9.80;80.40;101580.72;4978104;28;20061;-42
2022/09/16 07:01:24;;;;;;;3.85;0.90;;;;;;;9.82;80.34;101576.50;4982405;28;20062;-42
2022/09/16 07:03:51;;;;;;;1.45;0.90;;;;;;;9.85;80.24;101575.03;4982805;28;20096;-43
2022/09/16 07:06:20;;;;;;;3.78;1.45;;;;;;;9.87;80.18;101572.78;4989717;28;20050;-42
2022/09/16 07:08:48;;;;;;;1.25;0.65;;;;;;;9.90;80.26;101583.19;4989859;28;20047;-42
2022/09/16 07:11:15;;;;;;;4.80;0.70;;;;;;;9.91;80.09;101576.53;4989917;28;20050;-43
2022/09/16 07:13:43;;;;;;;4.07;0.88;;;;;;;9.96;80.25;101584.69;4975579;28;20046;-42
2022/09/16 07:16:13;;;;;;;4.35;1.00;;;;;;;9.99;80.23;101584.03;4978666;28;20054;-42
2022/09/16 07:18:41;;;;;;;4.05;1.00;;;;;;;10.01;79.98;101584.53;4982884;28;20053;-42
2022/09/16 07:21:19;;;;;;;2.58;0.70;;;;;;;10.05;80.06;101591.06;4983254;28;20092;-42
2022/09/16 07:23:47;;;;;;;5.30;0.90;;;;;;;10.06;79.92;101578.84;4977816;28;20051;-42
2022/09/16 07:26:20;;;;;;;3.15;0.90;;;;;;;10.09;79.95;101594.81;4989573;28;20046;-47
2022/09/16 07:28:48;;;;;;;2.55;0.80;;;;;;;10.15;79.90;101593.56;4989617;28;20109;-48
2022/09/16 07:31:19;;;;;;;1.63;0.50;;;;;;;10.20;79.80;101589.81;4985028;28;20054;-41
2022/09/16 07:33:49;;;;;;;11.00;0.98;;;;;;;10.24;79.86;101591.63;4983101;28;20038;-42
2022/09/16 07:36:19;;;;;;;1.15;0.65;;;;;;;10.27;79.54;101590.97;4981710;28;20057;-42
2022/09/16 07:38:47;;;;;;;5.13;0.93;;;;;;;10.29;79.70;101602.56;4984897;28;20058;-44
2022/09/16 07:41:17;;;;;;;4.45;1.30;;;;;;;10.31;79.75;101596.69;4974967;28;20054;-42
2022/09/16 07:43:45;;;;;;;3.72;1.10;;;;;;;10.35;79.72;101614.28;4976045;28;20038;-46
2022/09/16 07:46:15;;;;;;;3.35;0.50;;;;;;;10.38;79.57;101605.31;4989597;28;20050;-41
2022/09/16 07:48:44;;;;;;;3.85;1.58;;;;;;;10.42;79.61;101603.53;4988719;28;20771;-42
2022/09/16 07:51:15;;;;;;;3.47;0.98;;;;;;;10.47;79.61;101599.81;4989212;28;20054;-43
2022/09/16 07:53:43;;;;;;;1.67;0.77;;;;;;;10.49;79.59;101609.41;4981516;28;20049;-43
2022/09/16 07:56:13;;;;;;;1.80;0.88;;;;;;;10.54;79.60;101608.47;4974883;28;20053;-42
2022/09/16 07:58:40;;;;;;;7.38;0.80;;;;;;;10.60;79.66;101618.22;4987449;28;20054;-43
2022/09/16 08:01:08;;;;;;;8.85;1.45;;;;;;;10.63;79.46;101617.56;4981158;28;20058;-45
2022/09/16 08:03:36;;;;;;;6.75;0.82;;;;;;;10.65;79.47;101615.28;4974831;28;20125;-43
2022/09/16 08:06:05;;;;;;;2.60;0.70;;;;;;;10.69;79.46;101619.88;4980223;28;20051;-43
2022/09/16 08:08:32;;;;;;;1.63;0.50;;;;;;;10.76;79.51;101625.75;4969195;28;20054;-48
2022/09/16 08:11:00;;;;;;;8.25;0.98;;;;;;;10.80;79.32;101625.91;4983810;28;20053;-46
2022/09/16 08:13:29;;;;;;;7.22;0.85;;;;;;;10.86;79.37;101624.59;4988844;28;20468;-49
2022/09/16 08:16:05;;;;;;;6.25;1.00;;;;;;;10.91;79.35;101628.00;4975453;28;20062;-44
2022/09/16 08:18:33;;;;;;;6.38;0.60;;;;;;;10.94;79.34;101627.38;4989023;28;20042;-44
2022/09/16 08:21:11;;;;;;;7.10;0.98;;;;;;;10.99;79.33;101634.69;4975513;28;20386;-44
2022/09/16 08:23:39;;;;;;;3.17;0.80;;;;;;;11.06;79.41;101637.81;4982693;28;20411;-43
2022/09/16 08:26:09;;;;;;;12.60;1.50;;;;;;;11.13;79.32;101643.66;4988679;28;20046;-43
2022/09/16 08:28:38;;;;;;;4.18;1.27;;;;;;;11.18;79.11;101653.75;4976439;28;20117;-45
2022/09/16 08:31:23;;;;;;;14.00;1.20;;;;;;;11.26;79.28;101653.75;4987157;28;20109;-45
2022/09/16 08:33:50;;;;;;;2.10;1.00;;;;;;;11.37;79.61;101657.81;4990820;28;20787;-46
2022/09/16 08:36:19;;;;;;;4.47;0.60;;;;;;;11.47;79.69;101663.03;4977266;28;20057;-44
2022/09/16 08:38:48;;;;;;;9.48;1.00;;;;;;;11.59;80.20;101660.41;4990869;28;20077;-45
2022/09/16 08:41:47;;;;;;;3.22;0.63;;;;;;;11.74;80.65;101666.59;4984276;28;20047;-43
2022/09/16 08:44:25;;;;;;;1.90;0.77;;;;;;;11.91;81.76;101661.00;4976176;28;20051;-50
2022/09/16 08:46:54;;;;;;;0.95;0.45;;;;;;;12.11;82.96;101668.56;4992223;28;20134;-46
2022/09/16 08:49:30;;;;;;;1.42;0.70;;;;;;;12.29;83.58;101667.34;4991918;28;20496;-44
2022/09/16 08:51:59;;;;;;;3.50;0.60;;;;;;;12.49;84.74;101666.59;4991898;28;20060;-48
2022/09/16 08:54:33;;;;;;;3.05;0.90;;;;;;;12.76;85.95;101677.19;4989201;28;20050;-43
2022/09/16 08:57:03;;;;;;;4.05;0.80;;;;;;;13.11;86.55;101677.78;4987577;28;20043;-43
2022/09/16 08:59:39;;;;;;;4.05;0.50;;;;;;;13.66;87.13;101683.00;4983052;28;20057;-49
2022/09/16 09:02:47;;;;;;;3.72;1.67;;;;;;;14.64;85.40;101676.38;4982879;28;20085;-44
2022/09/16 09:05:35;;;;;;;3.78;0.70;;;;;;;15.93;81.99;101674.22;4990848;28;20046;-43
2022/09/16 09:08:14;;;;;;;3.72;1.40;;;;;;;17.29;77.04;101680.69;4991591;28;20050;-43
2022/09/16 09:10:43;;;;;;;2.85;0.40;;;;;;;18.45;71.57;101685.72;4979289;28;20050;-42
2022/09/16 09:13:29;;;;;;;5.80;0.77;;;;;;;19.31;66.87;101691.38;4991546;28;20042;-45
2022/09/16 09:16:18;;;;;;;3.03;0.80;;;;;;;20.26;63.67;101697.28;4978514;28;20141;-45
2022/09/16 09:19:10;;;;;;;2.35;0.80;;;;;;;21.01;61.20;101694.66;4982065;28;20046;-43
2022/09/16 09:21:55;;;;;;;2.17;0.50;;;;;;;21.43;58.24;101687.63;4991510;28;20393;-46
2022/09/16 09:24:47;;;;;;;3.33;0.60;;;;;;;21.63;56.24;101691.75;4986315;28;20301;-43
2022/09/16 09:27:25;;;;;;;0.73;0.20;;;;;;;21.66;53.46;101697.38;4945091;28;20066;-44
2022/09/16 09:30:20;;;;;;;8.40;1.23;;;;;;;21.72;53.04;101692.16;4983781;28;20039;-45
2022/09/16 09:33:02;;;;;;;2.65;0.63;;;;;;;21.96;51.23;101694.28;4985836;28;20066;-45
2022/09/16 09:35:52;;;;;;;2.67;0.60;;;;;;;21.93;50.66;101689.44;4976675;28;20050;-44
2022/09/16 09:38:27;;;;;;;1.75;0.40;;;;;;;21.89;49.78;101688.63;4976782;28;20050;-45
2022/09/16 09:41:05;;;;;;;3.15;0.60;;;;;;;22.20;48.72;101698.34;4981620;28;20526;-45
2022/09/16 09:43:44;;;;;;;4.93;0.50;;;;;;;22.34;47.91;101699.16;4980724;28;20050;-44
2022/09/16 09:46:30;;;;;;;2.40;0.60;;;;;;;22.51;46.78;101697.53;4987703;28;20594;-45
2022/09/16 09:49:01;;;;;;;0.55;0.40;;;;;;;22.61;46.04;101707.22;4991145;28;20050;-43
2022/09/16 09:51:39;;;;;;;3.38;0.60;;;;;;;22.73;46.27;101704.81;4990606;28;20073;-44
2022/09/16 09:54:36;;;;;;;4.45;1.33;;;;;;;22.95;45.87;101702.78;4983806;28;20046;-45
2022/09/16 09:57:27;;;;;;;5.95;1.13;;;;;;;23.14;45.08;101710.78;4984380;28;20058;-45
2022/09/16 10:00:13;;;;;;;6.18;0.85;;;;;;;22.87;44.26;101709.66;4980780;28;20572;-43
2022/09/16 10:02:42;;;;;;;3.95;0.70;;;;;;;22.03;44.49;101716.84;4980696;28;20078;-44
2022/09/16 10:05:23;;;;;;;2.58;0.40;;;;;;;21.62;45.42;101707.03;4984236;28;20492;-42
2022/09/16 10:07:54;;;;;;;2.42;0.85;;;;;;;21.51;45.00;101711.81;4990755;28;20101;-45
2022/09/16 10:10:26;;;;;;;4.43;0.40;;;;;;;21.43;44.25;101722.25;4978133;28;20425;-44
2022/09/16 10:12:53;;;;;;;2.83;0.40;;;;;;;21.28;44.25;101702.88;4990747;28;20587;-45
2022/09/16 10:15:27;;;;;;;8.30;1.58;;;;;;;20.55;44.57;101699.97;4990480;28;20054;-44
2022/09/16 10:17:58;;;;;;;3.10;1.08;;;;;;;20.51;45.25;101706.75;4984803;28;20117;-44
2022/09/16 10:20:28;;;;;;;2.47;0.80;;;;;;;19.82;45.24;101720.53;4990154;28;20061;-46
2022/09/16 10:23:18;;;;;;;1.25;0.43;;;;;;;19.22;46.96;101707.72;4990387;28;20118;-42
2022/09/16 10:25:44;;;;;;;2.10;0.52;;;;;;;19.78;46.89;101700.00;4986351;28;20043;-43
2022/09/16 10:28:25;;;;;;;2.33;0.70;;;;;;;20.43;45.91;101711.53;4980249;28;20050;-45
2022/09/16 10:30:54;;;;;;;2.15;1.15;;;;;;;21.06;44.53;101708.38;4984229;28;20046;-48
2022/09/16 10:33:29;;;;;;;2.75;0.57;;;;;;;21.41;43.51;101701.31;4974958;28;20061;-45
2022/09/16 10:35:59;;;;;;;3.15;0.80;;;;;;;21.78;42.85;101684.94;4986706;28;20073;-44
2022/09/16 10:38:45;;;;;;;3.13;0.77;;;;;;;21.83;42.14;101695.81;4990138;28;20050;-42
2022/09/16 10:41:44;;;;;;;1.75;0.38;;;;;;;21.44;42.47;101694.91;4990028;28;20069;-45
2022/09/16 10:44:24;;;;;;;1.92;0.70;;;;;;;21.46;42.58;101681.22;4967234;28;20059;-43
2022/09/16 10:46:59;;;;;;;5.75;0.80;;;;;;;21.39;42.27;101698.91;4983645;28;20050;-47
2022/09/16 10:49:34;;;;;;;2.33;0.40;;;;;;;21.40;42.31;101700.50;4984971;28;20547;-50
2022/09/16 10:52:22;;;;;;;3.63;0.52;;;;;;;21.19;41.62;101698.41;4990237;28;20057;-42
2022/09/16 10:54:49;;;;;;;3.08;0.50;;;;;;;20.96;42.21;101692.22;4985004;28;20047;-44
2022/09/16 10:57:30;;;;;;;1.42;0.80;;;;;;;20.51;42.78;101693.50;4980522;28;20037;-45
2022/09/16 11:00:23;;;;;;;2.67;0.65;;;;;;;19.87;44.03;101680.84;4977452;28;20054;-44
2022/09/16 11:03:11;;;;;;;5.00;0.57;;;;;;;19.22;45.43;101683.25;4995110;28;20058;-46
2022/09/16 11:05:44;;;;;;;3.42;0.60;;;;;;;18.74;46.63;101681.38;4989491;28;20053;-48
2022/09/16 11:08:19;;;;;;;9.43;2.42;;;;;;;18.47;47.45;101685.31;4982705;28;20058;-47
2022/09/16 11:11:02;;;;;;;2.33;0.55;;;;;;;18.32;47.89;101689.06;4989971;28;20042;-45
2022/09/16 11:13:49;;;;;;;;;;;;;;;17.95;48.40;101694.44;4990061;28;20057;-47
2022/09/16 11:16:47;;;;;;;3.15;0.43;;;;;;;17.48;48.66;101695.47;4978740;28;20285;-45
2022/09/16 11:19:30;;;;;;;2.35;0.68;;;;;;;17.02;49.23;101700.09;4988784;28;20053;-46
2022/09/16 11:21:59;;;;;;;1.92;0.65;;;;;;;16.81;49.93;101693.22;4989615;28;20057;-46
2022/09/16 11:24:32;;;;;;;1.23;0.40;;;;;;;16.79;50.56;101698.34;4983468;28;20046;-45
2022/09/16 11:27:07;;;;;;;0.70;0.40;;;;;;;16.62;51.19;101701.53;4989482;28;20058;-45
2022/09/16 11:29:46;;;;;;;2.08;0.57;;;;;;;16.42;51.70;101703.41;4976010;28;20397;-42
2022/09/16 11:33:07;;;;;;;2.42;0.30;;;;;;;16.27;51.80;101693.06;4986550;28;20038;-43
2022/09/16 11:35:46;;;;;;;3.47;0.60;;;;;;;16.18;52.47;101703.59;4967141;28;20066;-43
2022/09/16 11:38:21;;;;;;;2.38;0.70;;;;;;;16.12;52.70;101703.06;4967372;28;20069;-44
2022/09/16 11:41:30;;;;;;;3.00;0.40;;;;;;;15.97;52.70;101698.25;4965650;28;20519;-43
2022/09/16 11:44:24;;;;;;;6.07;0.80;;;;;;;15.94;53.43;101704.56;4989237;28;20528;-48
2022/09/16 11:47:14;;;;;;;8.65;0.75;;;;;;;16.06;53.57;101700.88;4978726;28;20061;-44
2022/09/16 11:50:10;;;;;;;6.65;0.80;;;;;;;16.18;53.37;101711.97;4989124;28;20058;-43
2022/09/16 11:53:21;;;;;;;2.67;1.08;;;;;;;16.12;53.73;101711.47;4954880;28;20051;-44
2022/09/16 11:56:13;;;;;;;2.17;0.50;;;;;;;16.04;53.88;101717.22;4989311;28;20413;-44
2022/09/16 11:58:46;;;;;;;6.15;0.98;;;;;;;16.01;53.99;101715.94;4988184;28;20054;-50